Terminal Aerodrome Forecast
Issued by NWS

Home | Current Version | Previous Version | Text Only | Print | Product List | Glossary On
Versions: 1 2 3 4 5 6 7 8 9 10 11 12 13
000
FTUS44 KOUN 231129
TAFWWR
TAF
KWWR 231129Z 2312/2412 17015KT P6SM SCT015
      TEMPO 2312/2315 BKN011
     FM231500 18020G35KT P6SM SCT020
     FM232300 17022G35KT P6SM SCT150 BKN200
      TEMPO 2404/2407 VRB40KT 3SM TSRA BKN030CB=

USA.gov is the U.S. government's official web portal to all federal, state and local government web resources and services.